createdAt,value
2022-12-01T00:01:19.980Z,88.09
2022-12-01T00:04:07.784Z,88.17
2022-12-01T00:06:54.621Z,88.38
2022-12-01T00:09:43.507Z,88.32
2022-12-01T00:12:23.997Z,88.66
2022-12-01T00:15:03.911Z,88.45
2022-12-01T00:17:49.684Z,87.95
2022-12-01T00:20:43.212Z,88.58
2022-12-01T00:23:23.731Z,88.26
2022-12-01T00:26:11.561Z,88.29
2022-12-01T00:28:48.176Z,88.58
2022-12-01T00:31:20.210Z,87.65
2022-12-01T00:34:12.790Z,87.89
2022-12-01T00:37:09.622Z,88.52
2022-12-01T00:42:43.088Z,88.51
2022-12-01T00:47:54.301Z,88.92
2022-12-01T00:50:24.193Z,88.25
2022-12-01T00:52:52.339Z,88.52
2022-12-01T00:55:20.552Z,88.17
2022-12-01T00:57:48.720Z,88.58
2022-12-01T01:00:18.480Z,88.88
2022-12-01T01:02:46.850Z,88.30
2022-12-01T01:05:15.065Z,88.64
2022-12-01T01:07:44.685Z,87.92
2022-12-01T01:10:17.035Z,88.36
2022-12-01T01:12:45.326Z,88.69
2022-12-01T01:15:13.543Z,88.79
2022-12-01T01:17:41.757Z,88.58
2022-12-01T01:20:11.676Z,88.68
2022-12-01T01:22:39.868Z,88.35
2022-12-01T01:25:10.468Z,88.50
2022-12-01T01:27:38.679Z,88.59
2022-12-01T01:30:10.676Z,87.99
2022-12-01T01:32:38.852Z,88.18
2022-12-01T01:35:08.488Z,88.34
2022-12-01T01:37:36.694Z,87.97
2022-12-01T01:40:06.272Z,88.16
2022-12-01T01:42:35.849Z,87.42
2022-12-01T01:45:04.414Z,88.82
2022-12-01T01:47:36.451Z,88.08
2022-12-01T01:50:10.236Z,87.60
2022-12-01T01:52:41.795Z,88.06
2022-12-01T01:55:10.796Z,87.99
2022-12-01T01:57:41.059Z,88.00
2022-12-01T02:00:13.901Z,88.02
2022-12-01T02:02:44.824Z,87.90
2022-12-01T02:05:17.878Z,88.15
2022-12-01T02:07:46.491Z,88.66
2022-12-01T02:10:22.350Z,87.76
2022-12-01T02:13:12.196Z,87.85
2022-12-01T02:15:49.798Z,88.31
2022-12-01T02:18:27.915Z,87.60
2022-12-01T02:21:27.703Z,88.09
2022-12-01T02:24:43.537Z,87.82
2022-12-01T02:27:27.232Z,88.18
2022-12-01T02:30:10.115Z,88.27
2022-12-01T02:33:01.589Z,88.04
2022-12-01T02:35:38.764Z,88.37
2022-12-01T02:38:18.827Z,87.90
2022-12-01T02:40:55.731Z,87.99
2022-12-01T02:43:32.719Z,87.86
2022-12-01T02:46:09.035Z,87.85
2022-12-01T02:48:41.299Z,88.27
2022-12-01T02:51:16.142Z,88.48
2022-12-01T02:53:44.931Z,87.61
2022-12-01T02:56:16.143Z,88.04
2022-12-01T02:58:44.849Z,88.28
2022-12-01T03:01:33.929Z,88.21
2022-12-01T03:04:26.389Z,88.46
2022-12-01T03:07:05.200Z,87.70
2022-12-01T03:09:49.317Z,87.67
2022-12-01T03:12:30.595Z,87.84
2022-12-01T03:15:08.140Z,88.06
2022-12-01T03:17:43.988Z,88.24
2022-12-01T03:20:21.452Z,88.36
2022-12-01T03:22:54.660Z,87.37
2022-12-01T03:25:26.316Z,88.39
2022-12-01T03:28:20.357Z,87.60
2022-12-01T03:30:46.658Z,88.65
2022-12-01T03:33:22.392Z,88.28
2022-12-01T03:35:57.376Z,87.48
2022-12-01T03:38:28.076Z,87.89
2022-12-01T03:41:00.663Z,87.62
2022-12-01T03:43:35.757Z,88.74
2022-12-01T03:46:10.935Z,88.14
2022-12-01T03:48:40.447Z,88.44
2022-12-01T03:51:17.443Z,87.50
2022-12-01T03:53:54.373Z,87.92
2022-12-01T03:56:28.078Z,87.68
2022-12-01T03:58:59.288Z,87.50
2022-12-01T04:01:33.027Z,87.98
2022-12-01T04:04:07.129Z,88.34
2022-12-01T04:06:37.224Z,87.88
2022-12-01T04:09:05.770Z,88.14
2022-12-01T04:11:51.564Z,87.66
2022-12-01T04:14:19.822Z,87.66
2022-12-01T04:16:48.600Z,88.70
2022-12-01T04:19:16.892Z,88.68
2022-12-01T04:21:46.388Z,88.25
2022-12-01T04:24:15.554Z,88.28
2022-12-01T04:26:46.060Z,87.76
2022-12-01T04:29:15.453Z,88.38
2022-12-01T04:31:43.653Z,88.71
2022-12-01T04:34:11.944Z,88.67
2022-12-01T04:36:40.214Z,88.35
2022-12-01T04:39:09.732Z,88.78
2022-12-01T04:41:37.945Z,87.80
2022-12-01T04:44:06.430Z,87.88
2022-12-01T04:46:34.643Z,88.27
2022-12-01T04:49:03.192Z,88.23
2022-12-01T04:51:31.588Z,88.70
2022-12-01T04:53:59.920Z,88.44
2022-12-01T04:56:29.609Z,88.41
2022-12-01T04:58:59.037Z,88.37
2022-12-01T05:01:27.958Z,87.80
2022-12-01T05:03:57.819Z,88.55
2022-12-01T05:06:29.522Z,88.39
2022-12-01T05:09:00.438Z,88.76
2022-12-01T05:11:31.835Z,88.92
2022-12-01T05:14:00.898Z,88.87
2022-12-01T05:16:34.559Z,88.48
2022-12-01T05:19:23.415Z,88.05
2022-12-01T05:21:52.476Z,88.53
2022-12-01T05:24:23.700Z,87.84
2022-12-01T05:26:53.265Z,87.94
2022-12-01T05:29:21.455Z,88.46
2022-12-01T05:31:50.068Z,88.62
2022-12-01T05:34:18.587Z,88.82
2022-12-01T05:36:46.888Z,87.95
2022-12-01T05:39:15.346Z,88.15
2022-12-01T05:41:43.555Z,88.90
2022-12-01T05:44:13.160Z,89.08
2022-12-01T05:46:41.543Z,88.94
2022-12-01T05:49:09.785Z,88.17
2022-12-01T05:51:38.084Z,88.93
2022-12-01T05:54:06.644Z,88.64
2022-12-01T05:56:34.877Z,88.54
2022-12-01T05:59:03.119Z,88.09
2022-12-01T06:01:32.676Z,88.53
2022-12-01T06:04:00.911Z,88.48
2022-12-01T06:06:29.128Z,88.47
2022-12-01T06:08:57.679Z,88.41
2022-12-01T06:11:25.844Z,88.22
2022-12-01T06:13:53.986Z,89.17
2022-12-01T06:16:22.223Z,89.15
2022-12-01T06:18:51.788Z,88.62
2022-12-01T06:21:20.052Z,89.03
2022-12-01T06:23:48.232Z,88.66
2022-12-01T06:26:16.472Z,88.38
2022-12-01T06:28:44.663Z,88.90
2022-12-01T06:31:12.875Z,88.47
2022-12-01T06:33:41.151Z,88.78
2022-12-01T06:36:12.043Z,88.76
2022-12-01T06:38:41.008Z,89.11
2022-12-01T06:41:09.825Z,89.12
2022-12-01T06:43:39.680Z,88.48
2022-12-01T06:46:08.503Z,88.98
2022-12-01T06:48:36.857Z,89.30
2022-12-01T06:51:05.400Z,89.20
2022-12-01T06:53:35.027Z,88.76
2022-12-01T06:56:04.308Z,88.98
2022-12-01T06:58:32.845Z,88.79
2022-12-01T07:01:02.041Z,88.46
2022-12-01T07:03:30.285Z,88.64
2022-12-01T07:06:00.373Z,88.76
2022-12-01T07:08:29.323Z,89.12
2022-12-01T07:11:03.996Z,89.29
2022-12-01T07:13:34.008Z,89.54
2022-12-01T07:16:03.143Z,88.26
2022-12-01T07:18:31.701Z,89.04
2022-12-01T07:21:02.011Z,88.58
2022-12-01T07:23:30.534Z,88.96
2022-12-01T07:26:05.492Z,88.77
2022-12-01T07:28:34.399Z,88.22
2022-12-01T07:31:05.061Z,88.38
2022-12-01T07:33:33.586Z,88.86
2022-12-01T07:36:01.920Z,88.91
2022-12-01T07:38:30.576Z,88.82
2022-12-01T07:41:05.477Z,89.08
2022-12-01T07:43:34.582Z,88.97
2022-12-01T07:46:08.777Z,88.93
2022-12-01T07:48:39.156Z,88.49
2022-12-01T07:51:08.960Z,88.80
2022-12-01T07:53:37.830Z,88.91
2022-12-01T07:56:08.976Z,88.74
2022-12-01T07:58:37.732Z,88.52
2022-12-01T08:01:10.176Z,89.08
2022-12-01T08:03:38.960Z,88.31
2022-12-01T08:06:08.559Z,89.34
2022-12-01T08:08:39.592Z,88.58
2022-12-01T08:11:13.014Z,89.31
2022-12-01T08:13:41.847Z,88.81
2022-12-01T08:16:13.825Z,88.73
2022-12-01T08:18:43.820Z,89.35
2022-12-01T08:21:14.994Z,88.96
2022-12-01T08:23:43.439Z,88.57
2022-12-01T08:26:16.206Z,89.02
2022-12-01T08:28:45.833Z,88.38
2022-12-01T08:31:19.894Z,89.18
2022-12-01T08:33:50.647Z,88.38
2022-12-01T08:36:20.458Z,88.94
2022-12-01T08:38:51.304Z,89.73
2022-12-01T08:41:21.458Z,88.74
2022-12-01T08:43:57.982Z,88.53
2022-12-01T08:46:27.982Z,88.67
2022-12-01T08:48:57.860Z,89.21
2022-12-01T08:51:27.070Z,88.25
2022-12-01T08:53:57.662Z,88.71
2022-12-01T08:56:30.715Z,88.66
2022-12-01T08:59:01.264Z,88.78
2022-12-01T09:01:29.951Z,88.75
2022-12-01T09:04:09.321Z,88.29
2022-12-01T09:06:43.107Z,87.95
2022-12-01T09:09:16.229Z,88.17
2022-12-01T09:11:46.893Z,88.71
2022-12-01T09:14:18.143Z,87.53
2022-12-01T09:16:49.727Z,88.51
2022-12-01T09:19:24.242Z,88.23
2022-12-01T09:21:53.823Z,87.83
2022-12-01T09:24:22.168Z,87.93
2022-12-01T09:26:52.201Z,88.37
2022-12-01T09:29:20.341Z,88.16
2022-12-01T09:31:48.690Z,87.73
2022-12-01T09:34:20.338Z,87.64
2022-12-01T09:36:49.495Z,86.85
2022-12-01T09:39:20.955Z,87.57
2022-12-01T09:41:55.667Z,87.60
2022-12-01T09:44:37.126Z,87.86
2022-12-01T09:47:16.785Z,87.06
2022-12-01T09:49:55.279Z,87.97
2022-12-01T09:52:27.631Z,86.94
2022-12-01T09:54:59.606Z,86.95
2022-12-01T09:57:35.288Z,87.32
2022-12-01T10:00:09.155Z,86.05
2022-12-01T10:02:43.105Z,86.51
2022-12-01T10:05:19.893Z,87.00
2022-12-01T10:07:55.012Z,86.24
2022-12-01T10:10:29.695Z,86.85
2022-12-01T10:13:00.525Z,86.99
2022-12-01T10:15:41.239Z,86.58
2022-12-01T10:18:24.258Z,86.43
2022-12-01T10:21:04.052Z,86.44
2022-12-01T10:23:48.670Z,86.58
2022-12-01T10:26:26.548Z,86.35
2022-12-01T10:29:11.788Z,85.22
2022-12-01T10:31:53.328Z,85.17
2022-12-01T10:34:26.052Z,85.46
2022-12-01T10:36:54.369Z,85.12
2022-12-01T10:39:29.929Z,84.38
2022-12-01T10:42:07.104Z,84.32
2022-12-01T10:44:37.204Z,84.09
2022-12-01T10:47:12.220Z,84.18
2022-12-01T10:49:42.160Z,84.40
2022-12-01T10:52:35.019Z,84.38
2022-12-01T10:55:06.197Z,84.16
2022-12-01T10:57:34.423Z,83.60
2022-12-01T11:00:08.626Z,83.40
2022-12-01T11:02:37.363Z,83.89
2022-12-01T11:05:08.443Z,82.78
2022-12-01T11:07:47.384Z,83.14
2022-12-01T11:10:19.928Z,83.52
2022-12-01T11:12:55.142Z,83.59
2022-12-01T11:15:28.479Z,83.46
2022-12-01T11:18:02.518Z,82.93
2022-12-01T11:20:36.527Z,82.96
2022-12-01T11:23:28.331Z,82.57
2022-12-01T11:26:16.351Z,83.11
2022-12-01T11:28:54.600Z,82.25
2022-12-01T11:31:38.178Z,82.28
2022-12-01T11:34:07.533Z,82.52
2022-12-01T11:36:44.150Z,82.21
2022-12-01T11:39:26.331Z,82.49
2022-12-01T11:42:00.277Z,81.91
2022-12-01T11:44:50.485Z,81.92
2022-12-01T11:47:23.957Z,82.16
2022-12-01T11:49:58.373Z,81.54
2022-12-01T11:52:30.672Z,81.97
2022-12-01T11:55:08.420Z,81.68
2022-12-01T11:57:38.993Z,81.42
2022-12-01T12:00:15.785Z,81.68
2022-12-01T12:03:09.603Z,81.68
2022-12-01T12:06:11.717Z,81.84
2022-12-01T12:09:05.281Z,81.98
2022-12-01T12:11:44.449Z,81.62
2022-12-01T12:14:37.406Z,80.63
2022-12-01T12:17:29.332Z,81.53
2022-12-01T12:20:30.185Z,81.61
2022-12-01T12:23:16.422Z,80.72
2022-12-01T12:26:04.660Z,81.75
2022-12-01T12:28:47.583Z,80.88
2022-12-01T12:31:30.905Z,81.46
2022-12-01T12:34:25.455Z,81.24
2022-12-01T12:37:11.208Z,81.73
2022-12-01T12:40:21.228Z,80.88
2022-12-01T12:43:06.609Z,81.15
2022-12-01T12:45:51.278Z,81.64
2022-12-01T12:48:41.672Z,80.72
2022-12-01T12:51:27.398Z,80.86
2022-12-01T12:54:03.907Z,81.30
2022-12-01T12:56:34.345Z,81.05
2022-12-01T12:59:09.300Z,80.83
2022-12-01T13:01:43.172Z,81.40
2022-12-01T13:04:17.751Z,81.38
2022-12-01T13:06:52.567Z,80.14
2022-12-01T13:09:29.382Z,80.37
2022-12-01T13:12:03.570Z,80.22
2022-12-01T13:14:37.793Z,81.14
2022-12-01T13:17:15.638Z,80.25
2022-12-01T13:19:45.875Z,80.99
2022-12-01T13:22:16.381Z,80.67
2022-12-01T13:24:46.329Z,80.79
2022-12-01T13:27:19.552Z,80.05
2022-12-01T13:29:51.393Z,80.54
2022-12-01T13:32:33.028Z,80.44
2022-12-01T13:35:03.431Z,80.93
2022-12-01T13:37:35.002Z,80.45
2022-12-01T13:40:21.567Z,80.18
2022-12-01T13:43:02.172Z,80.42
2022-12-01T15:24:37.272Z,81.85
2022-12-01T15:27:06.084Z,82.11
2022-12-01T15:29:38.833Z,81.15
2022-12-01T15:32:09.920Z,81.69
2022-12-01T15:34:43.345Z,82.05
2022-12-01T15:37:17.761Z,81.63
2022-12-01T15:39:50.696Z,81.79
2022-12-01T15:42:24.931Z,81.31
2022-12-01T15:45:01.405Z,82.48
2022-12-01T15:47:36.945Z,81.28
2022-12-01T15:50:07.356Z,81.27
2022-12-01T15:52:45.900Z,81.91
2022-12-01T15:55:31.323Z,82.13
2022-12-01T15:58:00.885Z,82.39
2022-12-01T16:00:29.499Z,82.64
2022-12-01T16:03:02.052Z,82.03
2022-12-01T16:05:33.302Z,82.24
2022-12-01T16:08:16.582Z,82.11
2022-12-01T16:10:47.011Z,82.33
2022-12-01T16:13:40.939Z,82.54
2022-12-01T16:16:29.674Z,82.46
2022-12-01T16:19:00.486Z,82.33
2022-12-01T16:21:29.618Z,82.47
2022-12-01T16:24:02.771Z,82.72
2022-12-01T16:26:34.442Z,82.79
2022-12-01T16:29:02.672Z,82.45
2022-12-01T16:31:30.934Z,82.23
2022-12-01T16:34:13.761Z,82.95
2022-12-01T16:36:46.980Z,82.53
2022-12-01T16:39:16.010Z,82.43
2022-12-01T16:41:46.879Z,82.39
2022-12-01T16:44:31.390Z,82.66
2022-12-01T16:46:59.600Z,82.79
2022-12-01T16:49:28.569Z,82.22
2022-12-01T16:51:58.060Z,82.67
2022-12-01T16:54:28.363Z,83.18
2022-12-01T16:56:57.915Z,82.71
2022-12-01T16:59:26.594Z,83.28
2022-12-01T17:01:54.799Z,82.29
2022-12-01T17:04:23.134Z,83.00
2022-12-01T17:06:51.571Z,83.03
2022-12-01T17:09:19.890Z,82.31
2022-12-01T17:11:48.112Z,82.63
2022-12-01T17:14:17.627Z,82.41
2022-12-01T17:16:45.828Z,83.18
2022-12-01T17:19:14.058Z,82.61
2022-12-01T17:21:42.637Z,82.97
2022-12-01T17:24:10.911Z,82.14
2022-12-01T17:26:39.102Z,82.23
2022-12-01T17:29:07.230Z,82.45
2022-12-01T17:31:36.764Z,82.32
2022-12-01T17:34:04.990Z,82.59
2022-12-01T17:36:33.198Z,82.66
2022-12-01T17:39:01.471Z,82.25
2022-12-01T17:41:32.610Z,82.61
2022-12-01T17:44:03.681Z,82.36
2022-12-01T17:46:32.270Z,82.42
2022-12-01T17:49:08.425Z,82.79
2022-12-01T17:51:36.668Z,82.65
2022-12-01T17:54:05.549Z,83.22
2022-12-01T17:56:35.828Z,82.41
2022-12-01T17:59:04.219Z,83.07
2022-12-01T18:01:32.518Z,82.76
2022-12-01T18:04:02.307Z,83.22
2022-12-01T18:06:30.530Z,82.53
2022-12-01T18:09:00.268Z,82.55
2022-12-01T18:11:28.749Z,82.54
2022-12-01T18:13:56.926Z,82.91
2022-12-01T18:16:27.267Z,82.53
2022-12-01T18:18:58.219Z,82.71
2022-12-01T18:21:29.414Z,82.75
2022-12-01T18:24:00.638Z,83.13
2022-12-01T18:26:30.815Z,82.60
2022-12-01T18:29:01.242Z,83.28
2022-12-01T18:31:30.922Z,82.58
2022-12-01T18:34:02.586Z,82.70
2022-12-01T18:36:34.554Z,83.03
2022-12-01T18:39:05.543Z,82.49
2022-12-01T18:41:33.884Z,82.71
2022-12-01T18:44:02.185Z,82.90
2022-12-01T18:46:30.701Z,83.02
2022-12-01T18:49:01.988Z,83.31
2022-12-01T18:51:32.495Z,82.84
2022-12-01T18:54:02.660Z,82.61
2022-12-01T18:56:31.403Z,82.51
2022-12-01T18:59:01.727Z,82.82
2022-12-01T19:01:33.810Z,82.72
2022-12-01T19:04:02.814Z,82.84
2022-12-01T19:06:34.269Z,82.79
2022-12-01T19:09:05.870Z,82.93
2022-12-01T19:11:34.256Z,82.26
2022-12-01T19:14:03.555Z,82.79
2022-12-01T19:16:32.005Z,82.29
2022-12-01T19:19:01.523Z,82.72
2022-12-01T19:21:31.085Z,82.49
2022-12-01T19:23:59.336Z,82.66
2022-12-01T19:26:27.626Z,82.40
2022-12-01T19:28:55.786Z,82.56
2022-12-01T19:31:25.546Z,82.43
2022-12-01T19:33:54.987Z,82.38
2022-12-01T19:36:25.533Z,82.17
2022-12-01T19:38:57.642Z,82.96
2022-12-01T19:41:28.606Z,82.64
2022-12-01T19:43:57.034Z,82.47
2022-12-01T19:46:27.592Z,82.04
2022-12-01T19:49:00.145Z,81.95
2022-12-01T19:51:31.180Z,82.46
2022-12-01T19:54:00.632Z,82.28
2022-12-01T19:56:30.072Z,82.47
2022-12-01T19:58:59.207Z,81.84
2022-12-01T20:01:28.779Z,82.30
2022-12-01T20:03:57.098Z,82.17
2022-12-01T20:06:27.741Z,81.79
2022-12-01T20:08:57.853Z,81.58
2022-12-01T20:11:29.612Z,81.87
2022-12-01T20:13:57.961Z,82.01
2022-12-01T20:16:28.497Z,81.63
2022-12-01T20:18:56.774Z,82.00
2022-12-01T20:21:27.781Z,81.78
2022-12-01T20:23:58.916Z,81.62
2022-12-01T20:26:31.043Z,81.72
2022-12-01T20:29:03.310Z,81.07
2022-12-01T20:31:34.414Z,81.51
2022-12-01T20:34:06.922Z,81.33
2022-12-01T20:36:36.576Z,81.34
2022-12-01T20:39:06.110Z,81.32
2022-12-01T20:41:36.275Z,81.84
2022-12-01T20:44:07.559Z,80.82
2022-12-01T20:46:36.749Z,81.14
2022-12-01T20:49:06.073Z,80.76
2022-12-01T20:51:34.806Z,80.90
2022-12-01T20:54:27.409Z,81.32
2022-12-01T20:56:55.129Z,81.25
2022-12-01T20:59:23.391Z,81.19
2022-12-01T21:01:53.451Z,80.84
2022-12-01T21:04:21.748Z,80.93
2022-12-01T21:06:51.241Z,81.14
2022-12-01T21:09:19.518Z,81.36
2022-12-01T21:12:08.699Z,81.23
2022-12-01T21:14:43.268Z,80.85
2022-12-01T21:17:24.796Z,80.83
2022-12-01T21:20:01.452Z,81.00
2022-12-01T21:22:29.734Z,81.26
2022-12-01T21:25:07.617Z,81.07
2022-12-01T21:27:35.933Z,81.00
2022-12-01T21:30:16.881Z,80.80
2022-12-01T21:32:47.428Z,81.12
2022-12-01T21:35:20.070Z,81.08
2022-12-01T21:37:49.508Z,80.95
2022-12-01T21:40:21.268Z,81.09
2022-12-01T21:42:50.083Z,80.97
2022-12-01T21:45:27.280Z,81.63
2022-12-01T21:48:01.425Z,81.41
2022-12-01T21:50:29.565Z,81.08
2022-12-01T21:52:58.966Z,81.03
2022-12-01T21:55:37.152Z,81.03
2022-12-01T21:58:27.369Z,81.50
2022-12-01T22:00:58.982Z,81.49
2022-12-01T22:03:32.268Z,81.22
2022-12-01T22:06:29.221Z,81.30
2022-12-01T22:09:01.559Z,81.37
2022-12-01T22:11:31.494Z,81.51
2022-12-01T22:14:12.359Z,81.59
2022-12-01T22:16:45.149Z,81.26
2022-12-01T22:19:31.601Z,81.54
2022-12-01T22:22:18.297Z,81.63
2022-12-01T22:24:49.582Z,81.25
2022-12-01T22:27:29.258Z,81.19
2022-12-01T22:30:01.588Z,81.63
2022-12-01T22:32:53.841Z,81.59
2022-12-01T22:35:36.247Z,81.84
2022-12-01T22:38:39.717Z,81.27
2022-12-01T22:41:12.038Z,81.27
2022-12-01T22:43:46.819Z,81.16
2022-12-01T22:46:31.362Z,81.00
2022-12-01T22:49:03.946Z,81.41
2022-12-01T22:51:39.147Z,80.97
2022-12-01T22:54:33.852Z,81.73
2022-12-01T22:57:25.846Z,81.19
2022-12-01T22:59:54.730Z,80.81
2022-12-01T23:02:25.017Z,81.04
2022-12-01T23:04:59.989Z,81.00
2022-12-01T23:07:34.746Z,81.25
2022-12-01T23:10:16.665Z,80.77
2022-12-01T23:12:46.833Z,81.11
2022-12-01T23:15:32.430Z,81.49
2022-12-01T23:18:11.099Z,80.56
2022-12-01T23:20:41.895Z,80.88
2022-12-01T23:23:15.483Z,80.90
2022-12-01T23:25:45.187Z,80.50
2022-12-01T23:28:14.791Z,80.58
2022-12-01T23:30:46.885Z,80.73
2022-12-01T23:33:20.462Z,80.16
2022-12-01T23:35:55.215Z,80.32
2022-12-01T23:38:27.422Z,80.43
2022-12-01T23:41:00.335Z,80.26
2022-12-01T23:43:31.883Z,80.36
2022-12-01T23:46:06.159Z,80.61
2022-12-01T23:48:37.675Z,80.21
2022-12-01T23:51:15.657Z,80.39
2022-12-01T23:53:44.324Z,80.37
2022-12-01T23:56:15.967Z,80.70
2022-12-01T23:58:45.087Z,80.25
